Time,TemperatureF,DewpointF,PressureIn,WindDirection,WindDirectionDegrees,WindSpeedMPH,WindSpeedGustMPH,Humidity,HourlyPrecipIn,Conditions,Clouds,dailyrainin,SoftwareType,DateUTC
2013-01-08 00:04:00,18.0,16.0,30.24,North,0,0.0,0.0,93,0.00,,,0.00,,2013-01-08 05:04:00,
2013-01-08 00:12:00,18.0,16.0,30.24,North,0,0.0,0.0,93,0.00,,,0.00,,2013-01-08 05:12:00,
2013-01-08 00:22:00,19.0,17.0,30.24,North,0,0.0,0.0,93,0.00,,,0.00,,2013-01-08 05:22:00,
2013-01-08 00:33:00,19.0,17.0,30.24,North,0,0.0,0.0,93,0.00,,,0.00,,2013-01-08 05:33:00,
2013-01-08 00:42:00,19.0,17.0,30.24,North,0,0.0,0.0,93,0.00,,,0.00,,2013-01-08 05:42:00,
2013-01-08 00:53:00,17.0,16.0,30.23,North,0,0.0,0.0,94,0.00,,,0.00,,2013-01-08 05:53:00,
2013-01-08 01:03:00,18.0,17.0,30.23,North,0,0.0,0.0,94,0.00,,,0.00,,2013-01-08 06:03:00,
2013-01-08 01:12:00,18.0,17.0,30.23,North,0,0.0,0.0,94,0.00,,,0.00,,2013-01-08 06:12:00,
2013-01-08 01:22:00,18.0,17.0,30.23,North,0,0.0,0.0,94,0.00,,,0.00,,2013-01-08 06:22:00,
2013-01-08 01:33:00,17.0,15.0,30.22,North,0,0.0,0.0,93,0.00,,,0.00,,2013-01-08 06:33:00,
2013-01-08 01:43:00,17.0,15.0,30.22,North,0,0.0,0.0,93,0.00,,,0.00,,2013-01-08 06:43:00,
2013-01-08 01:53:00,16.0,15.0,30.22,North,0,0.0,0.0,94,0.00,,,0.00,,2013-01-08 06:53:00,
2013-01-08 02:02:00,16.0,15.0,30.22,North,0,0.0,0.0,94,0.00,,,0.00,,2013-01-08 07:02:00,
2013-01-08 02:12:00,16.0,15.0,30.22,North,0,0.0,0.0,94,0.00,,,0.00,,2013-01-08 07:12:00,
2013-01-08 02:22:00,16.0,15.0,30.22,North,0,0.0,0.0,94,0.00,,,0.00,,2013-01-08 07:22:00,
2013-01-08 02:32:00,17.0,16.0,30.23,North,0,0.0,2.0,94,0.00,,,0.00,,2013-01-08 07:32:00,
2013-01-08 02:42:00,17.0,16.0,30.23,North,0,0.0,2.0,94,0.00,,,0.00,,2013-01-08 07:42:00,
2013-01-08 02:52:00,14.0,12.0,30.24,North,0,0.0,0.0,91,0.00,,,0.00,,2013-01-08 07:52:00,
2013-01-08 03:02:00,15.0,14.0,30.24,North,0,0.0,0.0,94,0.00,,,0.00,,2013-01-08 08:02:00,
2013-01-08 03:12:00,15.0,14.0,30.24,North,0,0.0,0.0,94,0.00,,,0.00,,2013-01-08 08:12:00,
2013-01-08 03:22:00,15.0,13.0,30.24,North,0,0.0,0.0,91,0.00,,,0.00,,2013-01-08 08:22:00,
2013-01-08 03:32:00,15.0,14.0,30.24,North,0,0.0,0.0,95,0.00,,,0.00,,2013-01-08 08:32:00,
2013-01-08 03:42:00,15.0,14.0,30.24,North,0,0.0,0.0,95,0.00,,,0.00,,2013-01-08 08:42:00,
2013-01-08 03:53:00,15.0,13.0,30.24,North,0,0.0,0.0,92,0.00,,,0.00,,2013-01-08 08:53:00,
2013-01-08 04:02:00,14.0,12.0,30.24,North,0,0.0,0.0,92,0.00,,,0.00,,2013-01-08 09:02:00,
2013-01-08 04:12:00,14.0,12.0,30.24,North,0,0.0,0.0,92,0.00,,,0.00,,2013-01-08 09:12:00,
2013-01-08 04:22:00,14.0,12.0,30.24,North,0,0.0,0.0,93,0.00,,,0.00,,2013-01-08 09:22:00,
2013-01-08 04:32:00,14.0,12.0,30.23,North,0,0.0,0.0,92,0.00,,,0.00,,2013-01-08 09:32:00,
2013-01-08 04:42:00,14.0,12.0,30.23,North,0,0.0,0.0,92,0.00,,,0.00,,2013-01-08 09:42:00,
2013-01-08 04:52:00,13.0,11.0,30.24,North,0,0.0,0.0,90,0.00,,,0.00,,2013-01-08 09:52:00,
2013-01-08 05:02:00,11.0,9.0,30.24,North,0,0.0,0.0,90,0.00,,,0.00,,2013-01-08 10:02:00,
2013-01-08 05:12:00,11.0,9.0,30.24,North,0,0.0,0.0,90,0.00,,,0.00,,2013-01-08 10:12:00,
2013-01-08 05:22:00,10.0,8.0,30.24,North,0,0.0,0.0,92,0.00,,,0.00,,2013-01-08 10:22:00,
2013-01-08 05:33:00,11.0,9.0,30.25,North,0,0.0,0.0,92,0.00,,,0.00,,2013-01-08 10:33:00,
2013-01-08 05:42:00,11.0,9.0,30.25,North,0,0.0,0.0,92,0.00,,,0.00,,2013-01-08 10:42:00,
2013-01-08 05:52:00,11.0,9.0,30.25,North,0,0.0,0.0,92,0.00,,,0.00,,2013-01-08 10:52:00,
2013-01-08 06:02:00,11.0,9.0,30.26,North,0,0.0,0.0,93,0.00,,,0.00,,2013-01-08 11:02:00,
2013-01-08 06:12:00,11.0,9.0,30.26,North,0,0.0,0.0,93,0.00,,,0.00,,2013-01-08 11:12:00,
2013-01-08 06:23:00,11.0,9.0,30.26,North,0,0.0,0.0,90,0.00,,,0.00,,2013-01-08 11:23:00,
2013-01-08 06:33:00,13.0,12.0,30.23,North,0,0.0,0.0,96,0.00,,,0.00,,2013-01-08 11:33:00,
2013-01-08 06:42:00,13.0,12.0,30.23,North,0,0.0,0.0,96,0.00,,,0.00,,2013-01-08 11:42:00,
2013-01-08 06:53:00,13.0,10.0,30.24,North,0,0.0,0.0,88,0.00,,,0.00,,2013-01-08 11:53:00,
2013-01-08 07:03:00,12.0,9.0,30.24,North,0,0.0,0.0,88,0.00,,,0.00,,2013-01-08 12:03:00,
2013-01-08 07:12:00,12.0,9.0,30.24,North,0,0.0,0.0,88,0.00,,,0.00,,2013-01-08 12:12:00,
2013-01-08 07:22:00,16.0,15.0,30.26,North,0,0.0,0.0,95,0.00,,,0.00,,2013-01-08 12:22:00,
2013-01-08 07:33:00,18.0,16.0,30.26,North,0,0.0,0.0,92,0.00,,,0.00,,2013-01-08 12:33:00,
2013-01-08 07:43:00,18.0,16.0,30.26,North,0,0.0,0.0,92,0.00,,,0.00,,2013-01-08 12:43:00,
2013-01-08 07:53:00,26.0,21.0,30.27,SW,233,1.0,4.0,80,0.00,,,0.00,,2013-01-08 12:53:00,
2013-01-08 08:03:00,29.0,21.0,30.27,SW,230,1.0,4.0,72,0.00,,,0.00,,2013-01-08 13:03:00,
2013-01-08 08:12:00,29.0,21.0,30.27,SW,230,1.0,4.0,72,0.00,,,0.00,,2013-01-08 13:12:00,
2013-01-08 08:22:00,25.0,17.0,30.27,SW,233,1.0,7.0,70,0.00,,,0.00,,2013-01-08 13:22:00,
2013-01-08 08:33:00,33.0,21.0,30.27,WSW,242,4.0,9.0,62,0.00,,,0.00,,2013-01-08 13:33:00,
2013-01-08 08:43:00,33.0,21.0,30.27,WSW,242,4.0,9.0,62,0.00,,,0.00,,2013-01-08 13:43:00,
2013-01-08 08:52:00,34.0,21.0,30.27,WSW,239,5.0,9.0,59,0.00,,,0.00,,2013-01-08 13:52:00,
2013-01-08 09:02:00,34.0,21.0,30.27,WSW,242,3.0,9.0,59,0.00,,,0.00,,2013-01-08 14:02:00,
2013-01-08 09:12:00,34.0,21.0,30.27,WSW,242,3.0,9.0,59,0.00,,,0.00,,2013-01-08 14:12:00,
2013-01-08 09:23:00,35.0,22.0,30.27,SW,229,3.0,8.0,58,0.00,,,0.00,,2013-01-08 14:23:00,
2013-01-08 09:33:00,34.0,21.0,30.30,SW,232,3.0,9.0,59,0.00,,,0.00,,2013-01-08 14:33:00,
2013-01-08 09:43:00,34.0,21.0,30.30,SW,232,3.0,9.0,59,0.00,,,0.00,,2013-01-08 14:43:00,
2013-01-08 09:53:00,35.0,22.0,30.30,North,0,0.0,5.0,58,0.00,,,0.00,,2013-01-08 14:53:00,
2013-01-08 10:03:00,35.0,22.0,30.30,WSW,244,2.0,6.0,58,0.00,,,0.00,,2013-01-08 15:03:00,
2013-01-08 10:12:00,35.0,22.0,30.30,WSW,244,2.0,6.0,58,0.00,,,0.00,,2013-01-08 15:12:00,
2013-01-08 10:22:00,35.0,22.0,30.30,WSW,244,2.0,6.0,58,0.00,,,0.00,,2013-01-08 15:22:00,
2013-01-08 10:33:00,36.0,23.0,30.31,SW,229,3.0,6.0,59,0.01,,,0.01,,2013-01-08 15:33:00,
2013-01-08 10:43:00,36.0,23.0,30.31,SW,229,3.0,6.0,59,0.01,,,0.01,,2013-01-08 15:43:00,
2013-01-08 10:53:00,36.0,23.0,30.32,SW,222,3.0,9.0,60,0.01,,,0.01,,2013-01-08 15:53:00,
2013-01-08 11:03:00,36.0,23.0,30.32,SW,229,2.0,10.0,60,0.01,,,0.01,,2013-01-08 16:03:00,
2013-01-08 11:12:00,36.0,23.0,30.32,SW,229,2.0,10.0,60,0.01,,,0.01,,2013-01-08 16:12:00,
2013-01-08 11:23:00,38.0,25.0,30.32,SW,219,1.0,8.0,58,0.01,,,0.01,,2013-01-08 16:23:00,
2013-01-08 11:34:00,39.0,25.0,30.31,SW,227,4.0,9.0,56,0.00,,,0.01,,2013-01-08 16:34:00,
2013-01-08 11:42:00,39.0,25.0,30.31,SW,227,4.0,9.0,56,0.00,,,0.01,,2013-01-08 16:42:00,
2013-01-08 11:52:00,40.0,26.0,30.30,WSW,245,4.0,9.0,56,0.00,,,0.01,,2013-01-08 16:52:00,
2013-01-08 12:03:00,40.0,26.0,30.30,SW,235,3.0,9.0,56,0.00,,,0.01,,2013-01-08 17:03:00,
2013-01-08 12:13:00,40.0,26.0,30.30,SW,235,3.0,9.0,56,0.00,,,0.01,,2013-01-08 17:13:00,
2013-01-08 12:23:00,40.0,26.0,30.29,SW,233,4.0,10.0,56,0.01,,,0.02,,2013-01-08 17:23:00,
2013-01-08 12:34:00,40.0,26.0,30.28,SW,233,2.0,11.0,58,0.01,,,0.02,,2013-01-08 17:34:00,
2013-01-08 12:43:00,40.0,26.0,30.28,SW,233,2.0,11.0,58,0.01,,,0.02,,2013-01-08 17:43:00,
2013-01-08 12:53:00,40.0,26.0,30.28,WSW,239,3.0,13.0,57,0.02,,,0.03,,2013-01-08 17:53:00,
2013-01-08 13:04:00,40.0,26.0,30.28,WSW,239,3.0,13.0,57,0.02,,,0.03,,2013-01-08 18:04:00,
2013-01-08 13:13:00,40.0,26.0,30.28,WSW,239,3.0,13.0,57,0.02,,,0.03,,2013-01-08 18:13:00,
2013-01-08 13:23:00,40.0,26.0,30.28,SW,229,5.0,16.0,57,0.02,,,0.04,,2013-01-08 18:23:00,
2013-01-08 13:33:00,40.0,26.0,30.28,SW,236,6.0,13.0,58,0.02,,,0.04,,2013-01-08 18:33:00,
2013-01-08 13:43:00,40.0,26.0,30.28,SW,236,6.0,13.0,58,0.02,,,0.04,,2013-01-08 18:43:00,
2013-01-08 13:53:00,40.0,26.0,30.28,SW,236,6.0,13.0,58,0.02,,,0.04,,2013-01-08 18:53:00,
2013-01-08 14:03:00,40.0,26.0,30.28,SW,236,6.0,13.0,58,0.02,,,0.04,,2013-01-08 19:03:00,
2013-01-08 14:23:00,41.0,27.0,30.29,WSW,239,9.0,20.0,57,0.02,,,0.06,,2013-01-08 19:23:00,
2013-01-08 14:33:00,41.0,27.0,30.29,WSW,237,7.0,15.0,57,0.03,,,0.07,,2013-01-08 19:33:00,
2013-01-08 14:43:00,41.0,27.0,30.29,WSW,237,7.0,15.0,57,0.03,,,0.07,,2013-01-08 19:43:00,
2013-01-08 14:53:00,41.0,-99.9,-100.00,WSW,250,5.0,13.0,-999,-99.99,,,-99.99,,2013-01-08 19:53:00,
2013-01-08 15:03:00,41.0,27.0,30.28,WSW,247,5.0,11.0,57,0.02,,,0.08,,2013-01-08 20:03:00,
2013-01-08 15:12:00,41.0,27.0,30.28,WSW,247,5.0,11.0,57,0.02,,,0.08,,2013-01-08 20:12:00,
2013-01-08 15:23:00,41.0,27.0,30.29,SW,230,4.0,8.0,57,0.02,,,0.09,,2013-01-08 20:23:00,
2013-01-08 15:33:00,41.0,27.0,30.29,WSW,245,5.0,8.0,57,0.02,,,0.09,,2013-01-08 20:33:00,
2013-01-08 15:43:00,41.0,27.0,30.29,WSW,245,5.0,8.0,57,0.02,,,0.09,,2013-01-08 20:43:00,
2013-01-08 15:54:00,41.0,27.0,30.29,SW,223,4.0,9.0,56,0.01,,,0.09,,2013-01-08 20:54:00,
2013-01-08 16:03:00,41.0,27.0,30.29,SSW,203,1.0,9.0,58,0.02,,,0.10,,2013-01-08 21:03:00,
2013-01-08 16:13:00,41.0,27.0,30.29,SSW,203,1.0,9.0,58,0.02,,,0.10,,2013-01-08 21:13:00,
2013-01-08 16:23:00,41.0,27.0,30.30,North,0,0.0,4.0,58,0.01,,,0.10,,2013-01-08 21:23:00,
2013-01-08 16:33:00,41.0,27.0,30.30,North,0,0.0,4.0,58,0.01,,,0.10,,2013-01-08 21:33:00,
2013-01-08 16:43:00,41.0,27.0,30.30,North,0,0.0,4.0,58,0.01,,,0.10,,2013-01-08 21:43:00,
2013-01-08 16:53:00,40.0,27.0,30.29,North,0,0.0,4.0,59,0.01,,,0.10,,2013-01-08 21:53:00,
2013-01-08 17:03:00,40.0,27.0,30.30,SW,222,1.0,4.0,59,0.00,,,0.10,,2013-01-08 22:03:00,
2013-01-08 17:12:00,40.0,27.0,30.30,SW,222,1.0,4.0,59,0.00,,,0.10,,2013-01-08 22:12:00,
2013-01-08 17:23:00,40.0,27.0,30.31,North,0,0.0,5.0,60,0.00,,,0.10,,2013-01-08 22:23:00,
2013-01-08 17:33:00,39.0,27.0,30.31,North,0,0.0,0.0,61,0.00,,,0.10,,2013-01-08 22:33:00,
2013-01-08 17:43:00,39.0,27.0,30.31,North,0,0.0,0.0,61,0.00,,,0.10,,2013-01-08 22:43:00,
2013-01-08 17:53:00,39.0,27.0,30.31,North,0,0.0,0.0,61,0.00,,,0.10,,2013-01-08 22:53:00,
2013-01-08 18:02:00,38.0,27.0,30.30,North,0,0.0,1.0,63,0.00,,,0.10,,2013-01-08 23:02:00,
2013-01-08 18:13:00,38.0,27.0,30.30,North,0,0.0,1.0,63,0.00,,,0.10,,2013-01-08 23:13:00,
2013-01-08 18:23:00,38.0,27.0,30.31,North,0,0.0,0.0,64,0.00,,,0.10,,2013-01-08 23:23:00,
2013-01-08 18:33:00,37.0,27.0,30.31,North,0,0.0,0.0,66,0.00,,,0.10,,2013-01-08 23:33:00,
2013-01-08 18:43:00,37.0,27.0,30.31,North,0,0.0,0.0,66,0.00,,,0.10,,2013-01-08 23:43:00,
2013-01-08 18:53:00,35.0,26.0,30.30,North,0,0.0,0.0,69,0.00,,,0.10,,2013-01-08 23:53:00,
2013-01-08 19:03:00,34.0,26.0,30.30,North,0,0.0,0.0,71,0.00,,,0.10,,2013-01-09 00:03:00,
2013-01-08 19:13:00,34.0,26.0,30.30,North,0,0.0,0.0,71,0.00,,,0.10,,2013-01-09 00:13:00,
2013-01-08 19:22:00,34.0,26.0,30.30,North,0,0.0,0.0,73,0.00,,,0.10,,2013-01-09 00:22:00,
2013-01-08 19:33:00,33.0,26.0,30.29,North,0,0.0,0.0,75,0.00,,,0.10,,2013-01-09 00:33:00,
2013-01-08 19:43:00,33.0,26.0,30.29,North,0,0.0,0.0,75,0.00,,,0.10,,2013-01-09 00:43:00,
2013-01-08 19:53:00,32.0,26.0,30.29,North,0,0.0,0.0,78,0.00,,,0.10,,2013-01-09 00:53:00,
2013-01-08 20:02:00,30.0,25.0,30.30,North,0,0.0,0.0,80,0.00,,,0.10,,2013-01-09 01:02:00,
2013-01-08 20:12:00,30.0,25.0,30.30,North,0,0.0,0.0,80,0.00,,,0.10,,2013-01-09 01:12:00,
2013-01-08 20:22:00,29.0,24.0,30.30,North,0,0.0,0.0,82,0.00,,,0.10,,2013-01-09 01:22:00,
2013-01-08 20:33:00,29.0,24.0,30.30,North,0,0.0,0.0,82,0.00,,,0.10,,2013-01-09 01:33:00,
2013-01-08 20:42:00,29.0,24.0,30.30,North,0,0.0,0.0,82,0.00,,,0.10,,2013-01-09 01:42:00,
2013-01-08 20:52:00,28.0,24.0,30.30,North,0,0.0,0.0,84,0.00,,,0.10,,2013-01-09 01:52:00,
2013-01-08 21:02:00,28.0,24.0,30.30,North,0,0.0,0.0,84,0.00,,,0.10,,2013-01-09 02:02:00,
2013-01-08 21:12:00,28.0,24.0,30.30,North,0,0.0,0.0,84,0.00,,,0.10,,2013-01-09 02:12:00,
2013-01-08 21:22:00,27.0,23.0,30.31,North,0,0.0,0.0,85,0.00,,,0.10,,2013-01-09 02:22:00,
2013-01-08 21:33:00,27.0,24.0,30.31,North,0,0.0,0.0,87,0.00,,,0.10,,2013-01-09 02:33:00,
2013-01-08 21:43:00,27.0,24.0,30.31,North,0,0.0,0.0,87,0.00,,,0.10,,2013-01-09 02:43:00,
2013-01-08 21:53:00,27.0,24.0,30.30,North,0,0.0,0.0,87,0.00,,,0.10,,2013-01-09 02:53:00,
2013-01-08 22:03:00,27.0,24.0,30.30,North,0,0.0,0.0,89,0.00,,,0.10,,2013-01-09 03:03:00,
2013-01-08 22:12:00,27.0,24.0,30.30,North,0,0.0,0.0,89,0.00,,,0.10,,2013-01-09 03:12:00,
2013-01-08 22:22:00,27.0,24.0,30.30,North,0,0.0,0.0,88,0.00,,,0.10,,2013-01-09 03:22:00,
2013-01-08 22:33:00,28.0,24.0,30.32,North,0,0.0,0.0,85,0.00,,,0.10,,2013-01-09 03:33:00,
2013-01-08 22:43:00,28.0,24.0,30.32,North,0,0.0,0.0,85,0.00,,,0.10,,2013-01-09 03:43:00,
2013-01-08 22:53:00,26.0,22.0,30.32,North,0,0.0,0.0,85,0.00,,,0.10,,2013-01-09 03:53:00,
2013-01-08 23:02:00,25.0,22.0,30.32,North,0,0.0,0.0,87,0.00,,,0.10,,2013-01-09 04:02:00,
2013-01-08 23:12:00,25.0,22.0,30.32,North,0,0.0,0.0,87,0.00,,,0.10,,2013-01-09 04:12:00,
2013-01-08 23:22:00,25.0,22.0,30.31,North,0,0.0,0.0,89,0.00,,,0.10,,2013-01-09 04:22:00,
2013-01-08 23:32:00,25.0,22.0,30.32,North,0,0.0,0.0,90,0.00,,,0.10,,2013-01-09 04:32:00,
2013-01-08 23:42:00,25.0,22.0,30.32,North,0,0.0,0.0,90,0.00,,,0.10,,2013-01-09 04:42:00,
2013-01-08 23:52:00,25.0,22.0,30.32,North,0,0.0,0.0,90,0.00,,,0.10,,2013-01-09 04:52:00,